Tyndall Air Force Base
KPAM : now visible

Airfield :











YOU CAN JOIN US ON...

 
LOGIN :

Register | Disclaimer

   EN    FR    IT 

 









Legend :    VFR   Marginal VFR   IFR   Intensive IFR   Very Intensive IFR
Visi :
Ceiling :
>= 8 km
>= 3000ft
5 to 8 km
1000 to 3000 ft
1500m to 5 km
500 to 1000 ft
800 to 1500m
200 to 500 ft
< 800m
< 200 ft
Symbols :   Thunderstorms  Fog  Heavy snow  Heavy precipitations  Wind > 20 kt






- Airport Elevation : 17 ft


KPAM - Tyndall Air Force Base

CURRENT METAR :
  • 141656Z AUTO 02008KT 10SM BKN065 OVC170 12/06 A3018 RMK AO2 SLP223 T01230057 $

EXPIRED METARs :
  • 141556Z AUTO 04009KT 10SM BKN065 OVC180 12/05 A3019 RMK AO2 SLP226 T01150051 $

TAF TAF KPAM
Valid from the 14 at 11:00 until the 15 at 17:00 UTC


141100Z 1411/1517 04012KT 9999 SCT045 BKN130 QNH3015INS
BECMG 1418/1419 02010KT 9000 -RA OVC015 QNH3010INS
BECMG 1502/1503 01010KT 8000 -RA BR OVC005 QNH3009INS TX16/1420Z TN07/1411Z



MET'MAP, your aeronautical weather chart ! - Copyright ORBIFLY December 2007 - Disclaimer

ORBIFLY MET'MAP TEAM :

Programming & Development : Alexandra Zaïnal
Concept & Development : Baudouin d'Aumeries
Co-Development & Prog : Marc-Olivier Méhu
Technical & hardware support : Manuel Goepfert

Contact : metmap@orbifly.com




SOURCES & CREDITS :

   NOAA       Earth
Advisory